Providence, Rhode Island
Traffic Map
Current Weather Conditions
Providence, Rhode Island
Clear
Clear
63°
Feels Like: 63°
Wind Chill: 63° Ceiling: Unl
Heat Index: 63° Visibility: 10mi
Dew Point: 46° Wind: 9mph
Humidity: 54% Direction: 210° (SSW)
Pressure: 30.11in Gusts: 0mph
Raw Report DataKPVD 262151Z 21008KT 10SM CLR 17/08 A3011 RMK AO2 SLP195 T01720078
Traffic Incident Summary
Active as of:
Severity:
Category:
InformationThere was an issue retrieving the traffic information for this location. Please try a different location or try again shortly.
Advertisements
Track Severe Weather on mobile